createdAt,value
2022-12-19T00:02:12.300Z,12.80
2022-12-19T00:05:14.073Z,14.57
2022-12-19T00:08:19.379Z,14.37
2022-12-19T00:11:23.766Z,11.97
2022-12-19T00:14:25.507Z,12.50
2022-12-19T00:17:27.143Z,12.77
2022-12-19T00:20:28.779Z,12.73
2022-12-19T00:23:32.290Z,12.40
2022-12-19T00:26:36.960Z,12.10
2022-12-19T00:29:38.629Z,12.03
2022-12-19T00:32:40.293Z,13.50
2022-12-19T00:35:41.971Z,11.60
2022-12-19T00:38:44.402Z,12.23
2022-12-19T00:41:46.253Z,13.17
2022-12-19T00:44:47.966Z,13.40
2022-12-19T00:47:49.616Z,13.00
2022-12-19T00:51:00.250Z,12.60
2022-12-19T00:54:05.305Z,11.87
2022-12-19T00:57:07.243Z,12.60
2022-12-19T01:00:26.519Z,12.93
2022-12-19T01:03:28.186Z,14.40
2022-12-19T01:06:29.870Z,12.33
2022-12-19T01:09:33.355Z,12.43
2022-12-19T01:12:47.403Z,13.57
2022-12-19T01:15:49.314Z,12.90
2022-12-19T01:18:50.947Z,15.10
2022-12-19T01:21:52.695Z,14.97
2022-12-19T01:24:54.969Z,13.03
2022-12-19T01:27:57.260Z,13.07
2022-12-19T01:30:58.945Z,12.20
2022-12-19T01:34:01.403Z,12.23
2022-12-19T01:37:03.213Z,10.27
2022-12-19T01:40:05.415Z,11.80
2022-12-19T01:43:13.866Z,12.87
2022-12-19T01:46:15.681Z,12.23
2022-12-19T01:49:25.616Z,15.13
2022-12-19T01:52:27.303Z,11.87
2022-12-19T01:55:29.114Z,13.23
2022-12-19T01:58:30.961Z,11.37
2022-12-19T02:01:32.789Z,15.87
2022-12-19T02:04:34.959Z,15.10
2022-12-19T02:07:38.158Z,11.20
2022-12-19T02:10:39.903Z,12.00
2022-12-19T02:13:42.727Z,8.87
2022-12-19T02:17:04.939Z,13.30
2022-12-19T02:20:37.320Z,13.80
2022-12-19T02:24:00.181Z,15.20
2022-12-19T02:27:07.664Z,11.50
2022-12-19T02:30:18.815Z,14.97
2022-12-19T02:33:35.531Z,12.53
2022-12-19T02:36:43.596Z,12.60
2022-12-19T02:39:55.185Z,15.67
2022-12-19T02:43:03.574Z,11.87
2022-12-19T02:46:07.488Z,13.90
2022-12-19T02:49:09.580Z,13.77
2022-12-19T02:52:20.114Z,12.33
2022-12-19T02:55:24.347Z,17.60
2022-12-19T02:58:40.680Z,14.20
2022-12-19T03:01:53.097Z,14.17
2022-12-19T03:05:05.687Z,12.73
2022-12-19T03:08:26.420Z,16.77
2022-12-19T03:11:34.471Z,15.43
2022-12-19T03:14:37.214Z,14.90
2022-12-19T03:17:39.721Z,15.30
2022-12-19T03:21:06.770Z,14.33
2022-12-19T03:24:11.582Z,12.87
2022-12-19T03:27:25.784Z,18.00
2022-12-19T03:30:29.209Z,13.67
2022-12-19T03:33:33.937Z,16.60
2022-12-19T03:36:42.600Z,14.03
2022-12-19T03:39:49.653Z,13.80
2022-12-19T03:43:09.565Z,14.67
2022-12-19T03:46:21.575Z,15.43
2022-12-19T03:49:23.353Z,13.30
2022-12-19T03:52:35.771Z,14.60
2022-12-19T03:55:42.914Z,14.03
2022-12-19T03:58:51.448Z,14.13
2022-12-19T04:01:54.707Z,14.47
2022-12-19T04:05:01.368Z,14.67
2022-12-19T04:08:06.371Z,16.70
2022-12-19T04:11:15.182Z,16.17
2022-12-19T04:14:23.520Z,13.93
2022-12-19T04:17:32.507Z,15.60
2022-12-19T04:20:38.483Z,14.90
2022-12-19T04:23:50.520Z,15.87
2022-12-19T04:26:54.502Z,14.73
2022-12-19T04:29:59.271Z,16.83
2022-12-19T04:33:01.041Z,14.73
2022-12-19T04:36:02.932Z,13.87
2022-12-19T04:39:04.708Z,15.27
2022-12-19T04:42:06.459Z,15.40
2022-12-19T04:45:10.984Z,14.73
2022-12-19T04:48:12.983Z,15.20
2022-12-19T04:51:16.047Z,13.47
2022-12-19T04:54:17.876Z,18.47
2022-12-19T04:57:19.544Z,15.43
2022-12-19T05:00:21.357Z,15.80
2022-12-19T05:03:23.596Z,16.50
2022-12-19T05:06:25.368Z,16.10
2022-12-19T05:09:27.118Z,15.37
2022-12-19T05:12:29.437Z,15.17
2022-12-19T05:15:31.797Z,14.43
2022-12-19T05:18:33.645Z,16.13
2022-12-19T05:21:35.564Z,15.80
2022-12-19T05:24:37.218Z,17.03
2022-12-19T05:27:38.975Z,16.10
2022-12-19T05:30:41.228Z,14.80
2022-12-19T05:33:43.962Z,18.40
2022-12-19T05:36:46.638Z,15.50
2022-12-19T05:39:48.341Z,15.73
2022-12-19T05:42:50.035Z,17.00
2022-12-19T05:45:51.880Z,16.30
2022-12-19T05:48:53.623Z,17.57
2022-12-19T05:51:55.280Z,17.03
2022-12-19T05:54:57.229Z,16.37
2022-12-19T05:57:59.048Z,19.33
2022-12-19T06:01:12.892Z,17.20
2022-12-19T06:04:14.655Z,15.40
2022-12-19T06:07:20.744Z,16.33
2022-12-19T06:10:22.965Z,18.40
2022-12-19T06:13:25.274Z,17.73
2022-12-19T06:16:27.033Z,16.63
2022-12-19T06:19:30.081Z,14.73
2022-12-19T06:22:31.872Z,18.53
2022-12-19T06:25:34.439Z,15.17
2022-12-19T06:28:36.218Z,19.60
2022-12-19T06:31:38.002Z,20.33
2022-12-19T06:35:03.268Z,17.30
2022-12-19T06:38:01.467Z,19.37
2022-12-19T06:41:23.118Z,19.13
2022-12-19T06:44:28.626Z,20.00
2022-12-19T06:47:30.267Z,19.20
2022-12-19T06:50:32.045Z,20.20
2022-12-19T06:53:33.816Z,19.60
2022-12-19T06:56:37.119Z,20.00
2022-12-19T06:59:38.779Z,18.30
2022-12-19T07:02:44.997Z,22.57
2022-12-19T07:05:47.209Z,17.63
2022-12-19T07:08:48.988Z,20.07
2022-12-19T07:11:50.665Z,21.83
2022-12-19T07:14:53.735Z,18.93
2022-12-19T07:17:55.700Z,19.67
2022-12-19T07:20:57.523Z,17.63
2022-12-19T07:24:00.096Z,19.50
2022-12-19T07:27:02.169Z,21.97
2022-12-19T07:30:06.079Z,20.17
2022-12-19T07:33:10.932Z,24.90
2022-12-19T07:36:13.467Z,19.60
2022-12-19T07:39:15.220Z,21.53
2022-12-19T07:42:17.019Z,23.63
2022-12-19T07:45:18.757Z,25.03
2022-12-19T07:48:22.745Z,23.33
2022-12-19T07:51:24.452Z,23.77
2022-12-19T07:54:26.229Z,30.20
2022-12-19T07:57:27.994Z,25.67
2022-12-19T08:00:31.607Z,28.03
2022-12-19T08:03:33.678Z,25.83
2022-12-19T08:06:40.785Z,26.00
2022-12-19T08:09:43.397Z,27.47
2022-12-19T08:12:46.404Z,24.07
2022-12-19T08:15:48.098Z,24.47
2022-12-19T08:18:49.832Z,27.13
2022-12-19T08:21:51.748Z,26.17
2022-12-19T08:24:53.576Z,31.10
2022-12-19T08:27:55.307Z,30.37
2022-12-19T08:30:57.098Z,29.53
2022-12-19T08:33:59.071Z,31.57
2022-12-19T08:37:00.995Z,28.23
2022-12-19T08:40:03.255Z,29.03
2022-12-19T08:43:04.951Z,31.63
2022-12-19T08:46:07.379Z,28.50
2022-12-19T08:49:09.414Z,32.50
2022-12-19T08:52:11.119Z,32.73
2022-12-19T08:55:12.843Z,31.93
2022-12-19T08:58:14.533Z,25.97
2022-12-19T09:01:19.350Z,30.47
2022-12-19T09:06:00.589Z,31.87
2022-12-19T09:07:43.269Z,26.20
2022-12-19T09:10:45.352Z,32.60
2022-12-19T09:13:48.251Z,31.63
2022-12-19T09:16:50.273Z,30.77
2022-12-19T09:19:52.072Z,31.43
2022-12-19T09:22:53.842Z,26.67
2022-12-19T09:25:57.214Z,31.13
2022-12-19T09:28:59.493Z,31.30
2022-12-19T09:32:01.277Z,33.57
2022-12-19T09:35:03.043Z,30.97
2022-12-19T09:38:05.818Z,31.57
2022-12-19T09:41:26.337Z,31.73
2022-12-19T09:45:10.455Z,29.47
2022-12-19T09:48:24.566Z,26.57
2022-12-19T09:51:44.045Z,27.83
2022-12-19T09:55:01.139Z,29.40
2022-12-19T09:58:10.683Z,30.23
2022-12-19T10:01:28.425Z,28.20
2022-12-19T10:04:34.419Z,30.90
2022-12-19T10:08:05.117Z,27.53
2022-12-19T10:12:39.023Z,30.00
2022-12-19T10:14:57.966Z,27.93
2022-12-19T10:18:15.370Z,26.93
2022-12-19T10:22:15.760Z,30.67
2022-12-19T10:25:29.215Z,29.90
2022-12-19T10:28:56.582Z,28.50
2022-12-19T10:32:32.213Z,24.27
2022-12-19T10:35:41.317Z,24.93
2022-12-19T10:39:03.904Z,26.13
2022-12-19T10:42:19.791Z,29.10
2022-12-19T10:45:23.559Z,27.77
2022-12-19T10:48:32.633Z,26.77
2022-12-19T10:51:37.067Z,25.80
2022-12-19T10:54:39.669Z,26.87
2022-12-19T10:57:41.684Z,28.20
2022-12-19T11:01:11.601Z,24.03
2022-12-19T11:04:32.873Z,27.90
2022-12-19T11:07:34.668Z,26.77
2022-12-19T11:12:18.159Z,25.23
2022-12-19T11:20:08.568Z,24.57
2022-12-19T11:22:59.569Z,23.73
2022-12-19T11:29:36.907Z,27.23
2022-12-19T11:29:41.753Z,24.43
2022-12-19T11:30:58.918Z,25.47
2022-12-19T11:35:05.773Z,24.93
2022-12-19T11:38:13.938Z,24.33
2022-12-19T11:41:26.359Z,25.17
2022-12-19T11:44:49.483Z,22.27
2022-12-19T11:48:13.995Z,21.23
2022-12-19T11:51:48.300Z,21.30
2022-12-19T11:55:00.600Z,26.93
2022-12-19T11:58:02.271Z,25.77
2022-12-19T12:01:10.039Z,23.67
2022-12-19T12:04:20.725Z,22.50
2022-12-19T12:07:49.750Z,22.77
2022-12-19T12:17:20.343Z,22.50
2022-12-19T12:25:39.416Z,24.53
2022-12-19T12:31:10.852Z,24.00
2022-12-19T12:31:23.448Z,22.53
2022-12-19T12:31:45.829Z,22.73
2022-12-19T12:31:59.002Z,27.83
2022-12-19T12:35:51.515Z,24.33
2022-12-19T12:40:51.618Z,26.70
2022-12-19T12:44:08.938Z,25.23
2022-12-19T12:47:30.146Z,27.10
2022-12-19T12:50:48.558Z,24.17
2022-12-19T12:54:01.582Z,22.07
2022-12-19T12:57:03.743Z,24.10
2022-12-19T13:00:18.089Z,24.97
2022-12-19T13:03:23.937Z,26.80
2022-12-19T13:06:31.704Z,25.13
2022-12-19T13:09:36.873Z,25.33
2022-12-19T13:13:15.828Z,24.37
2022-12-19T13:16:43.596Z,24.77
2022-12-19T13:19:57.050Z,22.90
2022-12-19T13:23:03.263Z,25.13
2022-12-19T13:26:19.970Z,22.97
2022-12-19T13:29:35.040Z,28.23
2022-12-19T13:32:39.775Z,24.67
2022-12-19T13:38:40.479Z,24.03
2022-12-19T13:39:59.970Z,25.53
2022-12-19T13:42:46.039Z,26.13
2022-12-19T13:45:54.039Z,23.73
2022-12-19T13:49:16.520Z,24.53
2022-12-19T13:52:19.264Z,27.57
2022-12-19T13:55:33.237Z,25.13
2022-12-19T13:58:55.061Z,23.33
2022-12-19T14:02:15.341Z,21.93
2022-12-19T14:06:14.751Z,25.57
2022-12-19T14:09:58.666Z,22.93
2022-12-19T14:12:51.987Z,25.40
2022-12-19T14:16:18.335Z,24.03
2022-12-19T14:19:28.865Z,22.67
2022-12-19T14:22:30.569Z,22.60
2022-12-19T14:28:20.804Z,24.83
2022-12-19T14:29:28.573Z,21.43
2022-12-19T14:33:44.324Z,25.10
2022-12-19T14:36:26.222Z,23.27
2022-12-19T14:39:36.258Z,22.90
2022-12-19T14:43:56.859Z,20.00
2022-12-19T14:54:00.452Z,20.17
2022-12-19T14:54:12.042Z,21.43
2022-12-19T14:54:23.273Z,22.17
2022-12-19T14:57:02.147Z,22.37
2022-12-19T15:01:09.831Z,24.77
2022-12-19T15:04:51.140Z,24.23
2022-12-19T15:07:29.486Z,29.27
2022-12-19T15:11:05.552Z,21.77
2022-12-19T15:14:55.133Z,25.33
2022-12-19T15:17:29.375Z,23.47
2022-12-19T15:20:31.123Z,21.90
2022-12-19T15:23:40.651Z,21.83
2022-12-19T15:26:54.729Z,25.17
2022-12-19T15:29:58.034Z,24.53
2022-12-19T15:32:59.853Z,22.33
2022-12-19T15:36:01.632Z,21.03
2022-12-19T15:39:03.917Z,21.20
2022-12-19T15:42:11.274Z,25.27
2022-12-19T15:45:16.045Z,22.83
2022-12-19T15:48:18.448Z,23.07
2022-12-19T15:51:20.208Z,25.60
2022-12-19T15:54:48.033Z,22.30
2022-12-19T15:57:52.621Z,21.00
2022-12-19T16:01:03.690Z,18.80
2022-12-19T16:04:13.155Z,21.47
2022-12-19T16:07:22.837Z,23.73
2022-12-19T16:10:25.700Z,20.57
2022-12-19T16:13:30.619Z,21.90
2022-12-19T16:16:32.406Z,21.00
2022-12-19T16:19:34.227Z,21.97
2022-12-19T16:22:35.949Z,26.83
2022-12-19T16:25:41.824Z,22.10
2022-12-19T16:28:43.614Z,20.43
2022-12-19T16:31:45.393Z,20.90
2022-12-19T16:34:47.253Z,20.37
2022-12-19T16:37:50.737Z,22.93
2022-12-19T16:40:52.905Z,22.67
2022-12-19T16:43:54.676Z,23.33
2022-12-19T16:47:13.851Z,22.40
2022-12-19T16:50:30.792Z,23.13
2022-12-19T16:53:35.713Z,21.80
2022-12-19T16:56:43.370Z,22.93
2022-12-19T16:59:45.080Z,20.97
2022-12-19T17:02:59.064Z,24.40
2022-12-19T17:06:01.245Z,21.00
2022-12-19T17:09:02.933Z,21.77
2022-12-19T17:12:04.977Z,23.47
2022-12-19T17:15:17.191Z,23.53
2022-12-19T17:18:38.845Z,20.63
2022-12-19T17:21:40.513Z,22.13
2022-12-19T17:24:46.574Z,20.10
2022-12-19T17:27:48.997Z,22.87
2022-12-19T17:30:53.617Z,19.67
2022-12-19T17:33:57.900Z,23.77
2022-12-19T17:37:01.638Z,22.50
2022-12-19T17:40:03.489Z,18.63
2022-12-19T17:43:08.293Z,22.50
2022-12-19T17:46:22.068Z,18.60
2022-12-19T17:49:31.727Z,18.97
2022-12-19T17:52:36.182Z,19.87
2022-12-19T17:55:38.100Z,20.13
2022-12-19T17:58:39.805Z,21.23
2022-12-19T18:01:42.722Z,20.23
2022-12-19T18:04:47.197Z,21.60
2022-12-19T18:07:50.004Z,24.07
2022-12-19T18:10:52.592Z,21.37
2022-12-19T18:13:55.271Z,24.90
2022-12-19T18:16:57.337Z,21.70
2022-12-19T18:20:00.203Z,21.07
2022-12-19T18:23:02.140Z,20.00
2022-12-19T18:26:03.948Z,20.67
2022-12-19T18:29:08.292Z,22.87
2022-12-19T18:32:19.082Z,21.90
2022-12-19T18:36:05.846Z,21.10
2022-12-19T18:39:45.815Z,22.47
2022-12-19T18:42:48.395Z,21.17
2022-12-19T18:45:56.522Z,22.23
2022-12-19T18:48:58.271Z,20.20
2022-12-19T18:52:01.030Z,21.40
2022-12-19T18:55:02.731Z,21.33
2022-12-19T18:58:07.087Z,26.47
2022-12-19T19:01:17.410Z,20.23
2022-12-19T19:04:19.204Z,19.73
2022-12-19T19:07:21.382Z,22.13
2022-12-19T19:10:30.218Z,21.93
2022-12-19T19:13:35.061Z,21.33
2022-12-19T19:16:40.100Z,21.37
2022-12-19T19:19:42.151Z,19.83
2022-12-19T19:22:44.767Z,24.70
2022-12-19T19:25:46.575Z,22.77
2022-12-19T19:28:52.214Z,23.97
2022-12-19T19:32:00.469Z,24.87
2022-12-19T19:35:06.721Z,24.43
2022-12-19T19:38:11.712Z,22.03
2022-12-19T19:41:18.959Z,23.17
2022-12-19T19:44:20.695Z,23.77
2022-12-19T19:47:29.221Z,21.77
2022-12-19T19:50:31.712Z,24.00
2022-12-19T19:53:34.018Z,23.03
2022-12-19T19:56:35.888Z,22.77
2022-12-19T19:59:37.752Z,22.13
2022-12-19T20:02:39.925Z,24.70
2022-12-19T20:05:41.861Z,23.57
2022-12-19T20:08:43.599Z,23.40
2022-12-19T20:11:45.614Z,21.80
2022-12-19T20:14:47.525Z,21.37
2022-12-19T20:17:51.473Z,28.67
2022-12-19T20:20:53.228Z,22.50
2022-12-19T20:23:54.980Z,21.77
2022-12-19T20:26:57.665Z,23.97
2022-12-19T20:29:59.433Z,27.63
2022-12-19T20:33:01.203Z,20.13
2022-12-19T20:36:11.825Z,22.90
2022-12-19T20:39:21.955Z,22.63
2022-12-19T20:42:23.836Z,23.57
2022-12-19T20:45:25.717Z,22.67
2022-12-19T20:48:30.533Z,27.07
2022-12-19T20:51:32.299Z,22.70
2022-12-19T20:54:33.976Z,25.03
2022-12-19T20:57:54.394Z,24.87
2022-12-19T21:00:57.426Z,21.03
2022-12-19T21:03:59.344Z,21.80
2022-12-19T21:07:01.152Z,26.13
2022-12-19T21:10:03.037Z,22.17
2022-12-19T21:13:04.813Z,24.30
2022-12-19T21:16:08.901Z,22.43
2022-12-19T21:19:10.856Z,22.13
2022-12-19T21:22:12.670Z,20.90
2022-12-19T21:25:14.513Z,22.83
2022-12-19T21:28:16.272Z,23.47
2022-12-19T21:31:19.381Z,21.40
2022-12-19T21:34:21.165Z,21.80
2022-12-19T21:37:24.203Z,22.03
2022-12-19T21:40:26.082Z,21.47
2022-12-19T21:43:27.775Z,24.10
2022-12-19T21:46:33.226Z,23.23
2022-12-19T21:49:35.048Z,21.57
2022-12-19T21:52:37.586Z,24.70
2022-12-19T21:55:39.899Z,26.70
2022-12-19T21:58:41.595Z,23.47
2022-12-19T22:01:44.632Z,21.03
2022-12-19T22:04:48.011Z,19.57
2022-12-19T22:07:53.363Z,21.23
2022-12-19T22:10:55.122Z,21.73
2022-12-19T22:14:00.227Z,22.63
2022-12-19T22:17:02.047Z,21.03
2022-12-19T22:20:09.395Z,21.73
2022-12-19T22:23:13.542Z,23.47
2022-12-19T22:26:21.610Z,23.20
2022-12-19T22:29:23.297Z,18.03
2022-12-19T22:32:24.970Z,22.10
2022-12-19T22:35:26.703Z,20.37
2022-12-19T22:38:28.432Z,17.93
2022-12-19T22:41:31.995Z,19.47
2022-12-19T22:44:33.677Z,20.03
2022-12-19T22:47:35.849Z,21.77
2022-12-19T22:50:37.682Z,21.27
2022-12-19T22:53:40.215Z,22.17
2022-12-19T22:56:45.285Z,21.53
2022-12-19T22:59:49.962Z,18.63
2022-12-19T23:02:51.828Z,19.97
2022-12-19T23:05:53.696Z,21.13
2022-12-19T23:08:55.519Z,18.70
2022-12-19T23:12:33.177Z,21.90
2022-12-19T23:15:35.359Z,18.00
2022-12-19T23:18:37.430Z,17.17
2022-12-19T23:21:39.172Z,20.33
2022-12-19T23:24:40.995Z,21.47
2022-12-19T23:27:42.789Z,20.77
2022-12-19T23:30:47.681Z,19.77
2022-12-19T23:33:49.856Z,19.50
2022-12-19T23:40:13.448Z,21.40
2022-12-19T23:43:15.700Z,19.57
2022-12-19T23:46:21.295Z,20.23
2022-12-19T23:49:23.021Z,19.80
2022-12-19T23:52:24.785Z,17.97
2022-12-19T23:55:27.106Z,18.57
2022-12-19T23:58:28.777Z,20.23
